sensor_id;sensor_type;location;lat;lon;timestamp;P1;durP1;ratioP1;P2;durP2;ratioP2
20140;SDS011;10231;47.702;9.826;2023-12-20T00:02:15;6.13;;;5.50;;
20140;SDS011;10231;47.702;9.826;2023-12-20T00:04:41;6.47;;;5.40;;
20140;SDS011;10231;47.702;9.826;2023-12-20T00:07:07;7.40;;;5.80;;
20140;SDS011;10231;47.702;9.826;2023-12-20T00:09:32;6.10;;;5.50;;
20140;SDS011;10231;47.702;9.826;2023-12-20T00:11:58;6.53;;;5.93;;
20140;SDS011;10231;47.702;9.826;2023-12-20T00:14:23;6.23;;;5.63;;
20140;SDS011;10231;47.702;9.826;2023-12-20T00:16:49;6.77;;;5.83;;
20140;SDS011;10231;47.702;9.826;2023-12-20T00:19:14;6.17;;;5.60;;
20140;SDS011;10231;47.702;9.826;2023-12-20T00:21:40;6.63;;;5.73;;
20140;SDS011;10231;47.702;9.826;2023-12-20T00:24:05;4.73;;;4.27;;
20140;SDS011;10231;47.702;9.826;2023-12-20T00:26:31;5.43;;;4.83;;
20140;SDS011;10231;47.702;9.826;2023-12-20T00:28:57;5.27;;;4.80;;
20140;SDS011;10231;47.702;9.826;2023-12-20T00:31:22;5.30;;;4.73;;
20140;SDS011;10231;47.702;9.826;2023-12-20T00:33:48;4.40;;;4.00;;
20140;SDS011;10231;47.702;9.826;2023-12-20T00:36:13;4.37;;;3.97;;
20140;SDS011;10231;47.702;9.826;2023-12-20T00:38:39;4.53;;;4.00;;
20140;SDS011;10231;47.702;9.826;2023-12-20T00:41:05;4.43;;;4.03;;
20140;SDS011;10231;47.702;9.826;2023-12-20T00:43:30;4.37;;;3.80;;
20140;SDS011;10231;47.702;9.826;2023-12-20T00:45:56;4.33;;;3.63;;
20140;SDS011;10231;47.702;9.826;2023-12-20T00:48:22;3.77;;;3.37;;
20140;SDS011;10231;47.702;9.826;2023-12-20T00:50:47;3.83;;;3.47;;
20140;SDS011;10231;47.702;9.826;2023-12-20T00:53:13;3.70;;;3.40;;
20140;SDS011;10231;47.702;9.826;2023-12-20T00:55:38;3.50;;;3.20;;
20140;SDS011;10231;47.702;9.826;2023-12-20T00:58:04;3.63;;;3.20;;
20140;SDS011;10231;47.702;9.826;2023-12-20T01:00:29;3.03;;;2.83;;
20140;SDS011;10231;47.702;9.826;2023-12-20T01:02:55;3.37;;;3.10;;
20140;SDS011;10231;47.702;9.826;2023-12-20T01:05:21;3.43;;;3.17;;
20140;SDS011;10231;47.702;9.826;2023-12-20T01:07:49;2.73;;;2.53;;
20140;SDS011;10231;47.702;9.826;2023-12-20T01:10:15;3.20;;;2.90;;
20140;SDS011;10231;47.702;9.826;2023-12-20T01:12:40;2.63;;;2.53;;
20140;SDS011;10231;47.702;9.826;2023-12-20T01:15:06;4.07;;;3.73;;
20140;SDS011;10231;47.702;9.826;2023-12-20T01:17:31;3.97;;;3.53;;
20140;SDS011;10231;47.702;9.826;2023-12-20T01:19:57;4.17;;;3.73;;
20140;SDS011;10231;47.702;9.826;2023-12-20T01:22:23;4.20;;;3.80;;
20140;SDS011;10231;47.702;9.826;2023-12-20T01:24:48;3.97;;;3.57;;
20140;SDS011;10231;47.702;9.826;2023-12-20T01:27:14;4.23;;;3.83;;
20140;SDS011;10231;47.702;9.826;2023-12-20T01:29:40;3.83;;;3.53;;
20140;SDS011;10231;47.702;9.826;2023-12-20T01:32:05;4.07;;;3.67;;
20140;SDS011;10231;47.702;9.826;2023-12-20T01:34:31;4.33;;;3.93;;
20140;SDS011;10231;47.702;9.826;2023-12-20T01:36:57;4.50;;;4.10;;
20140;SDS011;10231;47.702;9.826;2023-12-20T01:39:22;4.10;;;3.70;;
20140;SDS011;10231;47.702;9.826;2023-12-20T01:41:48;4.73;;;4.10;;
20140;SDS011;10231;47.702;9.826;2023-12-20T01:44:13;4.03;;;3.73;;
20140;SDS011;10231;47.702;9.826;2023-12-20T01:46:39;4.10;;;3.80;;
20140;SDS011;10231;47.702;9.826;2023-12-20T01:49:05;4.27;;;3.87;;
20140;SDS011;10231;47.702;9.826;2023-12-20T01:51:31;4.20;;;3.90;;
20140;SDS011;10231;47.702;9.826;2023-12-20T01:53:58;3.60;;;3.30;;
20140;SDS011;10231;47.702;9.826;2023-12-20T01:56:25;4.23;;;3.83;;
20140;SDS011;10231;47.702;9.826;2023-12-20T01:58:53;6.90;;;4.43;;
20140;SDS011;10231;47.702;9.826;2023-12-20T02:01:18;5.07;;;4.40;;
20140;SDS011;10231;47.702;9.826;2023-12-20T02:03:44;4.50;;;4.10;;
20140;SDS011;10231;47.702;9.826;2023-12-20T02:06:10;4.37;;;3.97;;
20140;SDS011;10231;47.702;9.826;2023-12-20T02:08:36;4.40;;;3.77;;
20140;SDS011;10231;47.702;9.826;2023-12-20T02:11:02;4.33;;;3.93;;
20140;SDS011;10231;47.702;9.826;2023-12-20T02:13:27;4.03;;;3.63;;
20140;SDS011;10231;47.702;9.826;2023-12-20T02:15:54;4.93;;;4.40;;
20140;SDS011;10231;47.702;9.826;2023-12-20T02:18:20;4.63;;;4.23;;
20140;SDS011;10231;47.702;9.826;2023-12-20T02:20:45;4.43;;;4.03;;
20140;SDS011;10231;47.702;9.826;2023-12-20T02:23:11;4.90;;;4.43;;
20140;SDS011;10231;47.702;9.826;2023-12-20T02:25:36;4.40;;;4.00;;
20140;SDS011;10231;47.702;9.826;2023-12-20T02:28:02;4.40;;;4.00;;
20140;SDS011;10231;47.702;9.826;2023-12-20T02:30:29;4.53;;;4.13;;
20140;SDS011;10231;47.702;9.826;2023-12-20T02:32:54;4.90;;;4.50;;
20140;SDS011;10231;47.702;9.826;2023-12-20T02:35:21;4.37;;;4.00;;
20140;SDS011;10231;47.702;9.826;2023-12-20T02:37:46;4.83;;;4.43;;
20140;SDS011;10231;47.702;9.826;2023-12-20T02:40:12;4.27;;;3.87;;
20140;SDS011;10231;47.702;9.826;2023-12-20T02:42:37;4.47;;;4.07;;
20140;SDS011;10231;47.702;9.826;2023-12-20T02:45:03;5.17;;;4.77;;
20140;SDS011;10231;47.702;9.826;2023-12-20T02:47:29;5.40;;;4.53;;
20140;SDS011;10231;47.702;9.826;2023-12-20T02:49:55;5.20;;;4.70;;
20140;SDS011;10231;47.702;9.826;2023-12-20T02:52:21;4.83;;;4.43;;
20140;SDS011;10231;47.702;9.826;2023-12-20T02:54:48;5.37;;;4.87;;
20140;SDS011;10231;47.702;9.826;2023-12-20T02:57:13;5.43;;;4.93;;
20140;SDS011;10231;47.702;9.826;2023-12-20T02:59:39;4.90;;;4.50;;
20140;SDS011;10231;47.702;9.826;2023-12-20T03:02:05;5.20;;;4.50;;
20140;SDS011;10231;47.702;9.826;2023-12-20T03:04:30;5.70;;;4.93;;
20140;SDS011;10231;47.702;9.826;2023-12-20T03:06:56;5.87;;;5.37;;
20140;SDS011;10231;47.702;9.826;2023-12-20T03:09:21;6.53;;;4.83;;
20140;SDS011;10231;47.702;9.826;2023-12-20T03:11:47;5.67;;;5.17;;
20140;SDS011;10231;47.702;9.826;2023-12-20T03:14:12;5.80;;;5.27;;
20140;SDS011;10231;47.702;9.826;2023-12-20T03:16:38;6.07;;;5.57;;
20140;SDS011;10231;47.702;9.826;2023-12-20T03:19:03;6.00;;;5.40;;
20140;SDS011;10231;47.702;9.826;2023-12-20T03:21:29;6.80;;;6.10;;
20140;SDS011;10231;47.702;9.826;2023-12-20T03:23:54;5.83;;;5.30;;
20140;SDS011;10231;47.702;9.826;2023-12-20T03:26:20;6.43;;;5.70;;
20140;SDS011;10231;47.702;9.826;2023-12-20T03:28:47;5.57;;;5.07;;
20140;SDS011;10231;47.702;9.826;2023-12-20T03:31:13;6.80;;;5.80;;
20140;SDS011;10231;47.702;9.826;2023-12-20T03:33:39;7.23;;;6.53;;
20140;SDS011;10231;47.702;9.826;2023-12-20T03:36:04;7.00;;;6.30;;
20140;SDS011;10231;47.702;9.826;2023-12-20T03:38:30;7.13;;;6.43;;
20140;SDS011;10231;47.702;9.826;2023-12-20T03:40:56;9.17;;;6.73;;
20140;SDS011;10231;47.702;9.826;2023-12-20T03:43:21;7.50;;;6.57;;
20140;SDS011;10231;47.702;9.826;2023-12-20T03:45:47;8.63;;;6.80;;
20140;SDS011;10231;47.702;9.826;2023-12-20T03:48:12;7.23;;;6.30;;
20140;SDS011;10231;47.702;9.826;2023-12-20T03:50:38;7.67;;;6.87;;
20140;SDS011;10231;47.702;9.826;2023-12-20T03:53:03;8.43;;;7.07;;
20140;SDS011;10231;47.702;9.826;2023-12-20T03:55:29;7.60;;;6.80;;
20140;SDS011;10231;47.702;9.826;2023-12-20T03:57:54;8.23;;;6.90;;
20140;SDS011;10231;47.702;9.826;2023-12-20T04:00:20;8.37;;;7.47;;
20140;SDS011;10231;47.702;9.826;2023-12-20T04:02:46;10.10;;;7.07;;
20140;SDS011;10231;47.702;9.826;2023-12-20T04:05:11;7.97;;;7.17;;
20140;SDS011;10231;47.702;9.826;2023-12-20T04:07:37;7.30;;;6.53;;
20140;SDS011;10231;47.702;9.826;2023-12-20T04:10:03;7.30;;;6.60;;
20140;SDS011;10231;47.702;9.826;2023-12-20T04:12:30;8.03;;;7.23;;
20140;SDS011;10231;47.702;9.826;2023-12-20T04:14:56;9.70;;;7.83;;
20140;SDS011;10231;47.702;9.826;2023-12-20T04:17:22;11.63;;;7.63;;
20140;SDS011;10231;47.702;9.826;2023-12-20T04:19:48;10.17;;;7.53;;
20140;SDS011;10231;47.702;9.826;2023-12-20T04:22:14;8.40;;;7.50;;
20140;SDS011;10231;47.702;9.826;2023-12-20T04:24:40;9.30;;;7.50;;
20140;SDS011;10231;47.702;9.826;2023-12-20T04:27:07;8.60;;;7.70;;
20140;SDS011;10231;47.702;9.826;2023-12-20T04:29:33;9.27;;;8.20;;
20140;SDS011;10231;47.702;9.826;2023-12-20T04:31:59;9.67;;;7.80;;
20140;SDS011;10231;47.702;9.826;2023-12-20T04:34:24;9.90;;;8.30;;
20140;SDS011;10231;47.702;9.826;2023-12-20T04:36:50;8.20;;;7.40;;
20140;SDS011;10231;47.702;9.826;2023-12-20T04:39:15;9.13;;;7.73;;
20140;SDS011;10231;47.702;9.826;2023-12-20T04:41:41;7.97;;;7.17;;
20140;SDS011;10231;47.702;9.826;2023-12-20T04:44:06;9.40;;;8.40;;
20140;SDS011;10231;47.702;9.826;2023-12-20T04:46:32;11.00;;;8.80;;
20140;SDS011;10231;47.702;9.826;2023-12-20T04:48:57;9.60;;;7.90;;
20140;SDS011;10231;47.702;9.826;2023-12-20T04:51:23;9.97;;;7.93;;
20140;SDS011;10231;47.702;9.826;2023-12-20T04:53:49;9.30;;;7.90;;
20140;SDS011;10231;47.702;9.826;2023-12-20T04:56:14;8.80;;;7.90;;
20140;SDS011;10231;47.702;9.826;2023-12-20T04:58:40;10.80;;;8.60;;
20140;SDS011;10231;47.702;9.826;2023-12-20T05:01:05;8.27;;;7.47;;
20140;SDS011;10231;47.702;9.826;2023-12-20T05:03:32;9.70;;;8.47;;
20140;SDS011;10231;47.702;9.826;2023-12-20T05:05:57;9.27;;;7.80;;
20140;SDS011;10231;47.702;9.826;2023-12-20T05:08:23;8.60;;;7.67;;
20140;SDS011;10231;47.702;9.826;2023-12-20T05:10:49;9.53;;;8.03;;
20140;SDS011;10231;47.702;9.826;2023-12-20T05:13:16;9.23;;;7.83;;
20140;SDS011;10231;47.702;9.826;2023-12-20T05:15:41;7.40;;;6.70;;
20140;SDS011;10231;47.702;9.826;2023-12-20T05:18:07;9.33;;;7.47;;
20140;SDS011;10231;47.702;9.826;2023-12-20T05:20:33;7.80;;;6.87;;
20140;SDS011;10231;47.702;9.826;2023-12-20T05:22:58;6.50;;;5.67;;
20140;SDS011;10231;47.702;9.826;2023-12-20T05:25:24;6.40;;;5.57;;
20140;SDS011;10231;47.702;9.826;2023-12-20T05:27:50;6.07;;;5.47;;
20140;SDS011;10231;47.702;9.826;2023-12-20T05:30:15;5.67;;;5.10;;
20140;SDS011;10231;47.702;9.826;2023-12-20T05:32:41;5.17;;;4.67;;
20140;SDS011;10231;47.702;9.826;2023-12-20T05:35:06;4.93;;;4.53;;
20140;SDS011;10231;47.702;9.826;2023-12-20T05:37:32;5.57;;;5.00;;
20140;SDS011;10231;47.702;9.826;2023-12-20T05:39:58;6.97;;;4.37;;
20140;SDS011;10231;47.702;9.826;2023-12-20T05:42:23;4.70;;;4.30;;
20140;SDS011;10231;47.702;9.826;2023-12-20T05:44:49;4.23;;;3.83;;
20140;SDS011;10231;47.702;9.826;2023-12-20T05:47:14;3.60;;;3.40;;
20140;SDS011;10231;47.702;9.826;2023-12-20T05:49:40;4.13;;;3.77;;
20140;SDS011;10231;47.702;9.826;2023-12-20T05:52:05;4.90;;;4.50;;
20140;SDS011;10231;47.702;9.826;2023-12-20T05:54:31;6.90;;;4.73;;
20140;SDS011;10231;47.702;9.826;2023-12-20T05:56:57;3.87;;;3.57;;
20140;SDS011;10231;47.702;9.826;2023-12-20T05:59:22;4.37;;;4.00;;
20140;SDS011;10231;47.702;9.826;2023-12-20T06:01:48;4.73;;;4.30;;
20140;SDS011;10231;47.702;9.826;2023-12-20T06:04:13;4.13;;;3.83;;
20140;SDS011;10231;47.702;9.826;2023-12-20T06:06:42;4.43;;;4.13;;
20140;SDS011;10231;47.702;9.826;2023-12-20T06:09:08;4.43;;;4.03;;
20140;SDS011;10231;47.702;9.826;2023-12-20T06:11:34;5.00;;;4.60;;
20140;SDS011;10231;47.702;9.826;2023-12-20T06:13:59;4.60;;;4.17;;
20140;SDS011;10231;47.702;9.826;2023-12-20T06:16:25;4.63;;;4.20;;
20140;SDS011;10231;47.702;9.826;2023-12-20T06:18:50;5.50;;;5.00;;
20140;SDS011;10231;47.702;9.826;2023-12-20T06:21:16;5.50;;;5.00;;
20140;SDS011;10231;47.702;9.826;2023-12-20T06:23:41;5.73;;;5.03;;
20140;SDS011;10231;47.702;9.826;2023-12-20T06:26:07;5.03;;;3.97;;
20140;SDS011;10231;47.702;9.826;2023-12-20T06:28:32;5.17;;;4.67;;
20140;SDS011;10231;47.702;9.826;2023-12-20T06:30:58;5.10;;;4.60;;
20140;SDS011;10231;47.702;9.826;2023-12-20T06:33:25;4.77;;;4.37;;
20140;SDS011;10231;47.702;9.826;2023-12-20T06:35:51;4.87;;;4.47;;
20140;SDS011;10231;47.702;9.826;2023-12-20T06:38:17;4.10;;;3.70;;
20140;SDS011;10231;47.702;9.826;2023-12-20T06:40:43;4.27;;;3.77;;
20140;SDS011;10231;47.702;9.826;2023-12-20T06:43:09;5.50;;;4.30;;
20140;SDS011;10231;47.702;9.826;2023-12-20T06:45:35;4.50;;;4.10;;
20140;SDS011;10231;47.702;9.826;2023-12-20T06:48:00;4.53;;;4.13;;
20140;SDS011;10231;47.702;9.826;2023-12-20T06:50:26;5.10;;;4.00;;
20140;SDS011;10231;47.702;9.826;2023-12-20T06:52:52;4.97;;;4.57;;
20140;SDS011;10231;47.702;9.826;2023-12-20T06:55:18;5.27;;;4.80;;
20140;SDS011;10231;47.702;9.826;2023-12-20T06:57:43;4.97;;;4.57;;
20140;SDS011;10231;47.702;9.826;2023-12-20T07:00:10;6.03;;;5.53;;
20140;SDS011;10231;47.702;9.826;2023-12-20T07:02:36;5.53;;;5.03;;
20140;SDS011;10231;47.702;9.826;2023-12-20T07:05:02;5.60;;;5.10;;
20140;SDS011;10231;47.702;9.826;2023-12-20T07:07:27;5.63;;;5.13;;
20140;SDS011;10231;47.702;9.826;2023-12-20T07:09:53;4.97;;;4.57;;
20140;SDS011;10231;47.702;9.826;2023-12-20T07:12:18;5.30;;;4.50;;
20140;SDS011;10231;47.702;9.826;2023-12-20T07:14:45;4.87;;;4.47;;
20140;SDS011;10231;47.702;9.826;2023-12-20T07:17:11;4.80;;;4.40;;
20140;SDS011;10231;47.702;9.826;2023-12-20T07:19:38;4.30;;;3.97;;
20140;SDS011;10231;47.702;9.826;2023-12-20T07:22:05;4.97;;;4.07;;
20140;SDS011;10231;47.702;9.826;2023-12-20T07:24:31;4.57;;;4.27;;
20140;SDS011;10231;47.702;9.826;2023-12-20T07:26:58;5.07;;;4.67;;
20140;SDS011;10231;47.702;9.826;2023-12-20T07:29:25;4.73;;;4.20;;
20140;SDS011;10231;47.702;9.826;2023-12-20T07:31:50;3.73;;;3.50;;
20140;SDS011;10231;47.702;9.826;2023-12-20T07:34:17;3.77;;;3.47;;
20140;SDS011;10231;47.702;9.826;2023-12-20T07:36:43;2.40;;;2.20;;
20140;SDS011;10231;47.702;9.826;2023-12-20T07:39:08;2.33;;;2.23;;
20140;SDS011;10231;47.702;9.826;2023-12-20T07:41:34;7.20;;;2.67;;
20140;SDS011;10231;47.702;9.826;2023-12-20T07:43:59;2.03;;;1.90;;
20140;SDS011;10231;47.702;9.826;2023-12-20T07:46:25;2.03;;;1.90;;
20140;SDS011;10231;47.702;9.826;2023-12-20T07:48:50;2.10;;;2.00;;
20140;SDS011;10231;47.702;9.826;2023-12-20T07:51:16;2.10;;;1.93;;
20140;SDS011;10231;47.702;9.826;2023-12-20T07:53:42;1.70;;;1.60;;
20140;SDS011;10231;47.702;9.826;2023-12-20T07:56:17;1.53;;;1.53;;
20140;SDS011;10231;47.702;9.826;2023-12-20T07:58:44;2.00;;;1.90;;
20140;SDS011;10231;47.702;9.826;2023-12-20T08:01:10;2.43;;;2.23;;
20140;SDS011;10231;47.702;9.826;2023-12-20T08:03:36;2.00;;;1.80;;
20140;SDS011;10231;47.702;9.826;2023-12-20T08:06:02;2.50;;;2.30;;
20140;SDS011;10231;47.702;9.826;2023-12-20T08:08:28;3.17;;;2.47;;
20140;SDS011;10231;47.702;9.826;2023-12-20T08:10:53;2.20;;;2.10;;
20140;SDS011;10231;47.702;9.826;2023-12-20T08:13:19;3.17;;;2.97;;
20140;SDS011;10231;47.702;9.826;2023-12-20T08:15:44;2.80;;;2.60;;
20140;SDS011;10231;47.702;9.826;2023-12-20T08:18:10;2.87;;;2.37;;
20140;SDS011;10231;47.702;9.826;2023-12-20T08:20:36;2.37;;;2.27;;
20140;SDS011;10231;47.702;9.826;2023-12-20T08:23:01;3.00;;;2.57;;
20140;SDS011;10231;47.702;9.826;2023-12-20T08:25:27;3.07;;;2.87;;
20140;SDS011;10231;47.702;9.826;2023-12-20T08:27:53;3.00;;;2.80;;
20140;SDS011;10231;47.702;9.826;2023-12-20T08:30:18;2.80;;;2.60;;
20140;SDS011;10231;47.702;9.826;2023-12-20T08:32:47;3.77;;;2.93;;
20140;SDS011;10231;47.702;9.826;2023-12-20T08:35:15;3.03;;;2.83;;
20140;SDS011;10231;47.702;9.826;2023-12-20T08:37:41;5.00;;;3.80;;
20140;SDS011;10231;47.702;9.826;2023-12-20T08:40:06;3.20;;;3.00;;
20140;SDS011;10231;47.702;9.826;2023-12-20T08:42:32;3.20;;;3.00;;
20140;SDS011;10231;47.702;9.826;2023-12-20T08:44:58;4.00;;;3.70;;
20140;SDS011;10231;47.702;9.826;2023-12-20T08:47:23;3.40;;;3.10;;
20140;SDS011;10231;47.702;9.826;2023-12-20T08:49:50;3.23;;;2.93;;
20140;SDS011;10231;47.702;9.826;2023-12-20T08:52:15;6.43;;;5.20;;
20140;SDS011;10231;47.702;9.826;2023-12-20T08:54:41;5.00;;;4.50;;
20140;SDS011;10231;47.702;9.826;2023-12-20T08:57:07;3.47;;;3.17;;
20140;SDS011;10231;47.702;9.826;2023-12-20T08:59:32;3.50;;;2.77;;
20140;SDS011;10231;47.702;9.826;2023-12-20T09:01:58;3.70;;;3.40;;
20140;SDS011;10231;47.702;9.826;2023-12-20T09:04:24;3.43;;;3.20;;
20140;SDS011;10231;47.702;9.826;2023-12-20T09:06:50;2.90;;;2.70;;
20140;SDS011;10231;47.702;9.826;2023-12-20T09:09:15;3.10;;;2.90;;
20140;SDS011;10231;47.702;9.826;2023-12-20T09:11:41;3.37;;;3.07;;
20140;SDS011;10231;47.702;9.826;2023-12-20T09:14:07;3.07;;;2.87;;
20140;SDS011;10231;47.702;9.826;2023-12-20T09:16:32;3.07;;;2.87;;
20140;SDS011;10231;47.702;9.826;2023-12-20T09:18:58;3.10;;;2.80;;
20140;SDS011;10231;47.702;9.826;2023-12-20T09:21:24;3.57;;;3.23;;
20140;SDS011;10231;47.702;9.826;2023-12-20T09:23:49;3.07;;;2.87;;
20140;SDS011;10231;47.702;9.826;2023-12-20T09:26:15;3.97;;;3.60;;
20140;SDS011;10231;47.702;9.826;2023-12-20T09:28:40;4.33;;;3.90;;
20140;SDS011;10231;47.702;9.826;2023-12-20T09:31:06;3.80;;;3.27;;
20140;SDS011;10231;47.702;9.826;2023-12-20T09:33:34;3.60;;;3.40;;
20140;SDS011;10231;47.702;9.826;2023-12-20T09:36:00;3.30;;;3.00;;
20140;SDS011;10231;47.702;9.826;2023-12-20T09:38:26;2.63;;;2.53;;
20140;SDS011;10231;47.702;9.826;2023-12-20T09:40:51;3.87;;;3.57;;
20140;SDS011;10231;47.702;9.826;2023-12-20T09:43:18;4.20;;;3.83;;
20140;SDS011;10231;47.702;9.826;2023-12-20T09:45:46;4.33;;;3.93;;
20140;SDS011;10231;47.702;9.826;2023-12-20T09:48:12;3.73;;;3.43;;
20140;SDS011;10231;47.702;9.826;2023-12-20T09:50:41;3.87;;;3.60;;
20140;SDS011;10231;47.702;9.826;2023-12-20T09:53:11;3.93;;;3.63;;
20140;SDS011;10231;47.702;9.826;2023-12-20T09:55:39;4.30;;;4.00;;
20140;SDS011;10231;47.702;9.826;2023-12-20T09:58:06;4.97;;;4.33;;
20140;SDS011;10231;47.702;9.826;2023-12-20T10:00:33;4.77;;;4.37;;
20140;SDS011;10231;47.702;9.826;2023-12-20T10:03:02;4.63;;;4.23;;
20140;SDS011;10231;47.702;9.826;2023-12-20T10:05:31;5.00;;;4.60;;
20140;SDS011;10231;47.702;9.826;2023-12-20T10:07:58;6.17;;;4.97;;
20140;SDS011;10231;47.702;9.826;2023-12-20T10:10:25;5.37;;;4.87;;
20140;SDS011;10231;47.702;9.826;2023-12-20T10:15:35;6.40;;;5.90;;
20140;SDS011;10231;47.702;9.826;2023-12-20T10:18:02;6.20;;;5.60;;
20140;SDS011;10231;47.702;9.826;2023-12-20T10:20:28;6.83;;;6.13;;
20140;SDS011;10231;47.702;9.826;2023-12-20T10:22:55;6.87;;;6.20;;
20140;SDS011;10231;47.702;9.826;2023-12-20T10:25:22;6.67;;;6.07;;
20140;SDS011;10231;47.702;9.826;2023-12-20T10:27:47;7.10;;;6.40;;
20140;SDS011;10231;47.702;9.826;2023-12-20T10:30:14;7.23;;;6.53;;
20140;SDS011;10231;47.702;9.826;2023-12-20T10:32:39;7.13;;;6.43;;
20140;SDS011;10231;47.702;9.826;2023-12-20T10:35:08;7.00;;;6.40;;
20140;SDS011;10231;47.702;9.826;2023-12-20T10:37:35;7.67;;;6.73;;
20140;SDS011;10231;47.702;9.826;2023-12-20T10:40:02;8.10;;;6.67;;
20140;SDS011;10231;47.702;9.826;2023-12-20T10:42:29;6.30;;;5.80;;
20140;SDS011;10231;47.702;9.826;2023-12-20T10:44:55;7.33;;;6.63;;
20140;SDS011;10231;47.702;9.826;2023-12-20T10:47:24;6.57;;;6.00;;
20140;SDS011;10231;47.702;9.826;2023-12-20T10:49:51;6.63;;;5.70;;
20140;SDS011;10231;47.702;9.826;2023-12-20T10:52:17;6.90;;;6.20;;
20140;SDS011;10231;47.702;9.826;2023-12-20T10:54:43;6.87;;;6.20;;
20140;SDS011;10231;47.702;9.826;2023-12-20T10:57:09;7.20;;;6.50;;
20140;SDS011;10231;47.702;9.826;2023-12-20T10:59:37;6.63;;;6.10;;
20140;SDS011;10231;47.702;9.826;2023-12-20T11:02:04;7.00;;;6.10;;
20140;SDS011;10231;47.702;9.826;2023-12-20T11:07:32;6.10;;;5.60;;
20140;SDS011;10231;47.702;9.826;2023-12-20T11:10:29;6.20;;;5.63;;
20140;SDS011;10231;47.702;9.826;2023-12-20T11:13:05;5.50;;;5.00;;
20140;SDS011;10231;47.702;9.826;2023-12-20T11:15:35;5.47;;;4.97;;
20140;SDS011;10231;47.702;9.826;2023-12-20T11:18:01;6.13;;;5.53;;
20140;SDS011;10231;47.702;9.826;2023-12-20T11:20:35;6.63;;;6.03;;
20140;SDS011;10231;47.702;9.826;2023-12-20T11:23:02;7.10;;;6.50;;
20140;SDS011;10231;47.702;9.826;2023-12-20T11:25:28;6.37;;;5.77;;
20140;SDS011;10231;47.702;9.826;2023-12-20T11:28:08;5.80;;;5.30;;
20140;SDS011;10231;47.702;9.826;2023-12-20T11:30:51;5.53;;;5.03;;
20140;SDS011;10231;47.702;9.826;2023-12-20T11:33:51;5.50;;;5.00;;
20140;SDS011;10231;47.702;9.826;2023-12-20T11:36:13;5.50;;;5.00;;
20140;SDS011;10231;47.702;9.826;2023-12-20T11:38:55;5.40;;;4.90;;
20140;SDS011;10231;47.702;9.826;2023-12-20T11:41:23;5.63;;;5.23;;
20140;SDS011;10231;47.702;9.826;2023-12-20T11:43:49;6.87;;;5.47;;
20140;SDS011;10231;47.702;9.826;2023-12-20T11:46:18;6.40;;;5.73;;
20140;SDS011;10231;47.702;9.826;2023-12-20T11:48:44;7.60;;;6.77;;
20140;SDS011;10231;47.702;9.826;2023-12-20T11:51:10;6.90;;;6.30;;
20140;SDS011;10231;47.702;9.826;2023-12-20T11:53:37;6.30;;;5.80;;
20140;SDS011;10231;47.702;9.826;2023-12-20T11:56:03;5.67;;;5.27;;
20140;SDS011;10231;47.702;9.826;2023-12-20T11:58:30;5.27;;;4.87;;
20140;SDS011;10231;47.702;9.826;2023-12-20T12:00:56;5.80;;;5.30;;
20140;SDS011;10231;47.702;9.826;2023-12-20T12:03:22;5.87;;;5.40;;
20140;SDS011;10231;47.702;9.826;2023-12-20T12:05:48;5.73;;;5.23;;
20140;SDS011;10231;47.702;9.826;2023-12-20T12:08:14;5.23;;;4.80;;
20140;SDS011;10231;47.702;9.826;2023-12-20T12:10:40;5.70;;;5.20;;
20140;SDS011;10231;47.702;9.826;2023-12-20T12:13:05;5.60;;;5.10;;
20140;SDS011;10231;47.702;9.826;2023-12-20T12:15:31;5.53;;;5.03;;
20140;SDS011;10231;47.702;9.826;2023-12-20T12:17:57;5.37;;;4.90;;
20140;SDS011;10231;47.702;9.826;2023-12-20T12:20:24;5.60;;;5.10;;
20140;SDS011;10231;47.702;9.826;2023-12-20T12:25:24;5.30;;;4.90;;
20140;SDS011;10231;47.702;9.826;2023-12-20T12:27:50;5.70;;;5.20;;
20140;SDS011;10231;47.702;9.826;2023-12-20T12:30:16;5.30;;;4.73;;
20140;SDS011;10231;47.702;9.826;2023-12-20T12:32:43;5.40;;;5.00;;
20140;SDS011;10231;47.702;9.826;2023-12-20T12:35:09;5.50;;;5.00;;
20140;SDS011;10231;47.702;9.826;2023-12-20T12:37:35;5.60;;;4.90;;
20140;SDS011;10231;47.702;9.826;2023-12-20T12:40:06;6.27;;;5.30;;
20140;SDS011;10231;47.702;9.826;2023-12-20T12:42:35;7.40;;;5.90;;
20140;SDS011;10231;47.702;9.826;2023-12-20T12:45:00;7.17;;;6.27;;
20140;SDS011;10231;47.702;9.826;2023-12-20T12:47:26;6.13;;;5.60;;
20140;SDS011;10231;47.702;9.826;2023-12-20T12:49:51;6.03;;;5.57;;
20140;SDS011;10231;47.702;9.826;2023-12-20T12:52:18;5.83;;;5.33;;
20140;SDS011;10231;47.702;9.826;2023-12-20T12:54:43;5.60;;;5.20;;
20140;SDS011;10231;47.702;9.826;2023-12-20T12:57:10;6.10;;;5.60;;
20140;SDS011;10231;47.702;9.826;2023-12-20T12:59:36;5.77;;;5.27;;
20140;SDS011;10231;47.702;9.826;2023-12-20T13:02:01;5.30;;;4.90;;
20140;SDS011;10231;47.702;9.826;2023-12-20T13:04:27;5.17;;;4.77;;
20140;SDS011;10231;47.702;9.826;2023-12-20T13:06:52;5.57;;;5.07;;
20140;SDS011;10231;47.702;9.826;2023-12-20T13:09:18;5.30;;;4.90;;
20140;SDS011;10231;47.702;9.826;2023-12-20T13:11:44;5.27;;;4.77;;
20140;SDS011;10231;47.702;9.826;2023-12-20T13:14:10;5.07;;;4.67;;
20140;SDS011;10231;47.702;9.826;2023-12-20T13:16:40;4.10;;;3.80;;
20140;SDS011;10231;47.702;9.826;2023-12-20T13:19:06;4.00;;;3.70;;
20140;SDS011;10231;47.702;9.826;2023-12-20T13:21:32;4.13;;;3.87;;
20140;SDS011;10231;47.702;9.826;2023-12-20T13:23:58;4.27;;;3.97;;
20140;SDS011;10231;47.702;9.826;2023-12-20T13:26:23;3.77;;;3.57;;
20140;SDS011;10231;47.702;9.826;2023-12-20T13:28:49;3.63;;;3.33;;
20140;SDS011;10231;47.702;9.826;2023-12-20T13:31:14;3.67;;;3.47;;
20140;SDS011;10231;47.702;9.826;2023-12-20T13:33:40;3.40;;;3.20;;
20140;SDS011;10231;47.702;9.826;2023-12-20T13:36:05;3.57;;;3.37;;
20140;SDS011;10231;47.702;9.826;2023-12-20T13:38:31;3.30;;;3.10;;
20140;SDS011;10231;47.702;9.826;2023-12-20T13:40:57;2.93;;;2.80;;
20140;SDS011;10231;47.702;9.826;2023-12-20T13:43:23;2.60;;;2.50;;
20140;SDS011;10231;47.702;9.826;2023-12-20T13:45:49;2.77;;;2.67;;
20140;SDS011;10231;47.702;9.826;2023-12-20T13:48:15;3.23;;;3.00;;
20140;SDS011;10231;47.702;9.826;2023-12-20T13:50:41;2.73;;;2.57;;
20140;SDS011;10231;47.702;9.826;2023-12-20T13:53:07;2.40;;;2.30;;
20140;SDS011;10231;47.702;9.826;2023-12-20T13:55:32;2.20;;;2.10;;
20140;SDS011;10231;47.702;9.826;2023-12-20T13:57:58;2.03;;;1.93;;
20140;SDS011;10231;47.702;9.826;2023-12-20T14:00:23;2.30;;;2.20;;
20140;SDS011;10231;47.702;9.826;2023-12-20T14:02:49;1.87;;;1.77;;
20140;SDS011;10231;47.702;9.826;2023-12-20T14:05:15;2.03;;;1.93;;
20140;SDS011;10231;47.702;9.826;2023-12-20T14:07:42;2.60;;;2.40;;
20140;SDS011;10231;47.702;9.826;2023-12-20T14:10:12;2.50;;;2.40;;
20140;SDS011;10231;47.702;9.826;2023-12-20T14:12:38;2.53;;;2.40;;
20140;SDS011;10231;47.702;9.826;2023-12-20T14:15:04;2.70;;;2.53;;
20140;SDS011;10231;47.702;9.826;2023-12-20T14:17:34;2.07;;;1.97;;
20140;SDS011;10231;47.702;9.826;2023-12-20T14:19:59;2.23;;;2.13;;
20140;SDS011;10231;47.702;9.826;2023-12-20T14:22:25;1.60;;;1.60;;
20140;SDS011;10231;47.702;9.826;2023-12-20T14:24:51;1.93;;;1.83;;
20140;SDS011;10231;47.702;9.826;2023-12-20T14:27:16;2.20;;;2.10;;
20140;SDS011;10231;47.702;9.826;2023-12-20T14:29:42;2.00;;;1.90;;
20140;SDS011;10231;47.702;9.826;2023-12-20T14:32:07;1.77;;;1.67;;
20140;SDS011;10231;47.702;9.826;2023-12-20T14:34:33;1.73;;;1.63;;
20140;SDS011;10231;47.702;9.826;2023-12-20T14:36:58;1.60;;;1.50;;
20140;SDS011;10231;47.702;9.826;2023-12-20T14:39:24;1.80;;;1.70;;
20140;SDS011;10231;47.702;9.826;2023-12-20T14:41:49;1.67;;;1.57;;
20140;SDS011;10231;47.702;9.826;2023-12-20T14:44:15;2.40;;;1.80;;
20140;SDS011;10231;47.702;9.826;2023-12-20T14:46:41;2.10;;;2.00;;
20140;SDS011;10231;47.702;9.826;2023-12-20T14:49:07;2.00;;;1.90;;
20140;SDS011;10231;47.702;9.826;2023-12-20T14:51:32;3.03;;;2.80;;